sensor_id;sensor_type;location;lat;lon;timestamp;P1;durP1;ratioP1;P2;durP2;ratioP2
8225;SDS011;4154;48.810;9.012;2023-03-01T00:02:20;11.03;;;9.37;;
8225;SDS011;4154;48.810;9.012;2023-03-01T00:04:47;10.63;;;9.43;;
8225;SDS011;4154;48.810;9.012;2023-03-01T00:07:13;11.37;;;9.60;;
8225;SDS011;4154;48.810;9.012;2023-03-01T00:09:38;10.63;;;9.33;;
8225;SDS011;4154;48.810;9.012;2023-03-01T00:12:05;11.40;;;9.80;;
8225;SDS011;4154;48.810;9.012;2023-03-01T00:14:31;10.83;;;9.43;;
8225;SDS011;4154;48.810;9.012;2023-03-01T00:16:58;9.90;;;8.80;;
8225;SDS011;4154;48.810;9.012;2023-03-01T00:19:24;10.83;;;9.50;;
8225;SDS011;4154;48.810;9.012;2023-03-01T00:21:49;10.37;;;9.27;;
8225;SDS011;4154;48.810;9.012;2023-03-01T00:24:15;10.83;;;9.10;;
8225;SDS011;4154;48.810;9.012;2023-03-01T00:26:41;11.03;;;9.27;;
8225;SDS011;4154;48.810;9.012;2023-03-01T00:29:07;10.70;;;9.10;;
8225;SDS011;4154;48.810;9.012;2023-03-01T00:31:33;10.27;;;8.93;;
8225;SDS011;4154;48.810;9.012;2023-03-01T00:34:00;12.50;;;9.13;;
8225;SDS011;4154;48.810;9.012;2023-03-01T00:36:30;11.47;;;9.00;;
8225;SDS011;4154;48.810;9.012;2023-03-01T00:38:58;10.03;;;8.93;;
8225;SDS011;4154;48.810;9.012;2023-03-01T00:41:25;9.97;;;8.93;;
8225;SDS011;4154;48.810;9.012;2023-03-01T00:43:51;11.00;;;8.97;;
8225;SDS011;4154;48.810;9.012;2023-03-01T00:46:19;10.00;;;8.97;;
8225;SDS011;4154;48.810;9.012;2023-03-01T00:48:51;10.07;;;8.50;;
8225;SDS011;4154;48.810;9.012;2023-03-01T00:51:18;10.23;;;9.10;;
8225;SDS011;4154;48.810;9.012;2023-03-01T00:53:51;9.73;;;8.73;;
8225;SDS011;4154;48.810;9.012;2023-03-01T00:56:19;10.00;;;8.90;;
8225;SDS011;4154;48.810;9.012;2023-03-01T00:58:44;10.23;;;9.13;;
8225;SDS011;4154;48.810;9.012;2023-03-01T01:01:11;13.73;;;9.40;;
8225;SDS011;4154;48.810;9.012;2023-03-01T01:03:51;11.07;;;9.10;;
8225;SDS011;4154;48.810;9.012;2023-03-01T01:06:24;10.30;;;8.83;;
8225;SDS011;4154;48.810;9.012;2023-03-01T01:08:53;10.83;;;9.20;;
8225;SDS011;4154;48.810;9.012;2023-03-01T01:11:20;11.87;;;9.67;;
8225;SDS011;4154;48.810;9.012;2023-03-01T01:13:49;11.67;;;9.23;;
8225;SDS011;4154;48.810;9.012;2023-03-01T01:16:16;11.50;;;9.80;;
8225;SDS011;4154;48.810;9.012;2023-03-01T01:18:44;10.87;;;9.30;;
8225;SDS011;4154;48.810;9.012;2023-03-01T01:21:11;11.17;;;9.00;;
8225;SDS011;4154;48.810;9.012;2023-03-01T01:23:40;9.70;;;8.70;;
8225;SDS011;4154;48.810;9.012;2023-03-01T01:26:09;10.03;;;8.67;;
8225;SDS011;4154;48.810;9.012;2023-03-01T01:28:47;10.33;;;8.97;;
8225;SDS011;4154;48.810;9.012;2023-03-01T01:31:14;11.80;;;9.17;;
8225;SDS011;4154;48.810;9.012;2023-03-01T01:33:41;11.50;;;9.20;;
8225;SDS011;4154;48.810;9.012;2023-03-01T01:36:07;10.37;;;9.07;;
8225;SDS011;4154;48.810;9.012;2023-03-01T01:38:33;10.97;;;9.13;;
8225;SDS011;4154;48.810;9.012;2023-03-01T01:41:00;11.77;;;9.30;;
8225;SDS011;4154;48.810;9.012;2023-03-01T01:43:30;10.57;;;9.40;;
8225;SDS011;4154;48.810;9.012;2023-03-01T01:46:23;10.37;;;8.77;;
8225;SDS011;4154;48.810;9.012;2023-03-01T01:49:10;11.00;;;9.10;;
8225;SDS011;4154;48.810;9.012;2023-03-01T01:52:05;10.43;;;9.10;;
8225;SDS011;4154;48.810;9.012;2023-03-01T01:54:46;10.70;;;9.10;;
8225;SDS011;4154;48.810;9.012;2023-03-01T01:57:26;9.77;;;8.53;;
8225;SDS011;4154;48.810;9.012;2023-03-01T01:59:59;10.93;;;9.07;;
8225;SDS011;4154;48.810;9.012;2023-03-01T02:02:31;10.40;;;9.30;;
8225;SDS011;4154;48.810;9.012;2023-03-01T02:05:06;10.27;;;8.77;;
8225;SDS011;4154;48.810;9.012;2023-03-01T02:07:58;11.77;;;9.10;;
8225;SDS011;4154;48.810;9.012;2023-03-01T02:10:23;10.90;;;9.43;;
8225;SDS011;4154;48.810;9.012;2023-03-01T02:12:52;10.40;;;9.30;;
8225;SDS011;4154;48.810;9.012;2023-03-01T02:15:21;12.20;;;9.63;;
8225;SDS011;4154;48.810;9.012;2023-03-01T02:17:48;10.90;;;9.27;;
8225;SDS011;4154;48.810;9.012;2023-03-01T02:22:58;10.53;;;8.83;;
8225;SDS011;4154;48.810;9.012;2023-03-01T02:25:27;10.33;;;9.17;;
8225;SDS011;4154;48.810;9.012;2023-03-01T02:30:32;11.00;;;9.27;;
8225;SDS011;4154;48.810;9.012;2023-03-01T02:32:59;10.37;;;9.23;;
8225;SDS011;4154;48.810;9.012;2023-03-01T02:35:37;12.63;;;9.10;;
8225;SDS011;4154;48.810;9.012;2023-03-01T02:38:05;10.63;;;9.00;;
8225;SDS011;4154;48.810;9.012;2023-03-01T02:40:33;11.63;;;9.20;;
8225;SDS011;4154;48.810;9.012;2023-03-01T02:43:02;11.13;;;9.43;;
8225;SDS011;4154;48.810;9.012;2023-03-01T02:45:33;10.83;;;9.27;;
8225;SDS011;4154;48.810;9.012;2023-03-01T02:47:59;12.50;;;9.13;;
8225;SDS011;4154;48.810;9.012;2023-03-01T02:50:32;12.23;;;9.60;;
8225;SDS011;4154;48.810;9.012;2023-03-01T02:53:27;11.00;;;9.73;;
8225;SDS011;4154;48.810;9.012;2023-03-01T02:56:07;11.53;;;9.50;;
8225;SDS011;4154;48.810;9.012;2023-03-01T02:58:37;10.53;;;9.10;;
8225;SDS011;4154;48.810;9.012;2023-03-01T03:01:10;12.77;;;9.73;;
8225;SDS011;4154;48.810;9.012;2023-03-01T03:03:39;11.87;;;9.87;;
8225;SDS011;4154;48.810;9.012;2023-03-01T03:06:06;10.83;;;9.73;;
8225;SDS011;4154;48.810;9.012;2023-03-01T03:08:32;11.30;;;9.60;;
8225;SDS011;4154;48.810;9.012;2023-03-01T03:10:58;10.93;;;9.80;;
8225;SDS011;4154;48.810;9.012;2023-03-01T03:13:23;10.90;;;9.47;;
8225;SDS011;4154;48.810;9.012;2023-03-01T03:15:53;10.50;;;9.40;;
8225;SDS011;4154;48.810;9.012;2023-03-01T03:18:21;11.90;;;10.33;;
8225;SDS011;4154;48.810;9.012;2023-03-01T03:20:51;10.83;;;9.10;;
8225;SDS011;4154;48.810;9.012;2023-03-01T03:23:19;12.53;;;10.27;;
8225;SDS011;4154;48.810;9.012;2023-03-01T03:25:47;11.10;;;9.60;;
8225;SDS011;4154;48.810;9.012;2023-03-01T03:28:15;12.67;;;9.50;;
8225;SDS011;4154;48.810;9.012;2023-03-01T03:30:41;11.10;;;9.87;;
8225;SDS011;4154;48.810;9.012;2023-03-01T03:33:09;11.77;;;9.73;;
8225;SDS011;4154;48.810;9.012;2023-03-01T03:35:46;11.70;;;9.63;;
8225;SDS011;4154;48.810;9.012;2023-03-01T03:38:15;11.30;;;9.93;;
8225;SDS011;4154;48.810;9.012;2023-03-01T03:40:45;11.10;;;9.90;;
8225;SDS011;4154;48.810;9.012;2023-03-01T03:43:15;12.30;;;10.50;;
8225;SDS011;4154;48.810;9.012;2023-03-01T03:45:47;11.60;;;9.90;;
8225;SDS011;4154;48.810;9.012;2023-03-01T03:48:16;11.73;;;9.70;;
8225;SDS011;4154;48.810;9.012;2023-03-01T03:50:46;11.37;;;9.83;;
8225;SDS011;4154;48.810;9.012;2023-03-01T03:53:14;12.07;;;9.60;;
8225;SDS011;4154;48.810;9.012;2023-03-01T03:55:40;11.53;;;10.23;;
8225;SDS011;4154;48.810;9.012;2023-03-01T03:58:07;11.90;;;10.50;;
8225;SDS011;4154;48.810;9.012;2023-03-01T04:00:39;11.83;;;9.83;;
8225;SDS011;4154;48.810;9.012;2023-03-01T04:03:08;11.33;;;10.10;;
8225;SDS011;4154;48.810;9.012;2023-03-01T04:05:37;11.97;;;10.40;;
8225;SDS011;4154;48.810;9.012;2023-03-01T04:08:04;11.47;;;9.80;;
8225;SDS011;4154;48.810;9.012;2023-03-01T04:10:34;12.47;;;10.23;;
8225;SDS011;4154;48.810;9.012;2023-03-01T04:13:02;11.47;;;10.17;;
8225;SDS011;4154;48.810;9.012;2023-03-01T04:15:28;12.90;;;10.17;;
8225;SDS011;4154;48.810;9.012;2023-03-01T04:17:56;13.83;;;11.20;;
8225;SDS011;4154;48.810;9.012;2023-03-01T04:20:25;12.47;;;10.70;;
8225;SDS011;4154;48.810;9.012;2023-03-01T04:22:58;12.40;;;10.57;;
8225;SDS011;4154;48.810;9.012;2023-03-01T04:25:35;13.13;;;10.33;;
8225;SDS011;4154;48.810;9.012;2023-03-01T04:28:10;11.70;;;10.03;;
8225;SDS011;4154;48.810;9.012;2023-03-01T04:30:36;12.63;;;10.33;;
8225;SDS011;4154;48.810;9.012;2023-03-01T04:33:04;12.07;;;9.87;;
8225;SDS011;4154;48.810;9.012;2023-03-01T04:35:32;11.93;;;9.90;;
8225;SDS011;4154;48.810;9.012;2023-03-01T04:37:59;11.47;;;10.27;;
8225;SDS011;4154;48.810;9.012;2023-03-01T04:40:25;12.30;;;10.97;;
8225;SDS011;4154;48.810;9.012;2023-03-01T04:42:51;13.07;;;10.70;;
8225;SDS011;4154;48.810;9.012;2023-03-01T04:45:17;12.97;;;10.60;;
8225;SDS011;4154;48.810;9.012;2023-03-01T04:47:43;11.47;;;10.07;;
8225;SDS011;4154;48.810;9.012;2023-03-01T04:50:11;11.53;;;10.17;;
8225;SDS011;4154;48.810;9.012;2023-03-01T04:52:40;12.03;;;10.83;;
8225;SDS011;4154;48.810;9.012;2023-03-01T04:55:07;13.50;;;11.10;;
8225;SDS011;4154;48.810;9.012;2023-03-01T04:57:34;12.70;;;10.73;;
8225;SDS011;4154;48.810;9.012;2023-03-01T05:00:00;14.17;;;11.03;;
8225;SDS011;4154;48.810;9.012;2023-03-01T05:02:26;12.00;;;10.57;;
8225;SDS011;4154;48.810;9.012;2023-03-01T05:04:51;12.37;;;10.73;;
8225;SDS011;4154;48.810;9.012;2023-03-01T05:07:17;12.30;;;10.43;;
8225;SDS011;4154;48.810;9.012;2023-03-01T05:09:47;13.63;;;10.87;;
8225;SDS011;4154;48.810;9.012;2023-03-01T05:12:14;11.70;;;10.33;;
8225;SDS011;4154;48.810;9.012;2023-03-01T05:14:40;12.30;;;10.97;;
8225;SDS011;4154;48.810;9.012;2023-03-01T05:17:06;12.83;;;11.27;;
8225;SDS011;4154;48.810;9.012;2023-03-01T05:19:32;12.30;;;10.90;;
8225;SDS011;4154;48.810;9.012;2023-03-01T05:21:58;12.60;;;10.67;;
8225;SDS011;4154;48.810;9.012;2023-03-01T05:24:29;12.87;;;10.33;;
8225;SDS011;4154;48.810;9.012;2023-03-01T05:27:00;13.77;;;11.17;;
8225;SDS011;4154;48.810;9.012;2023-03-01T05:29:27;11.83;;;10.53;;
8225;SDS011;4154;48.810;9.012;2023-03-01T05:31:57;13.90;;;10.93;;
8225;SDS011;4154;48.810;9.012;2023-03-01T05:34:26;13.10;;;11.37;;
8225;SDS011;4154;48.810;9.012;2023-03-01T05:36:54;12.77;;;10.63;;
8225;SDS011;4154;48.810;9.012;2023-03-01T05:39:21;12.67;;;11.00;;
8225;SDS011;4154;48.810;9.012;2023-03-01T05:41:51;12.13;;;10.10;;
8225;SDS011;4154;48.810;9.012;2023-03-01T05:44:24;13.10;;;11.03;;
8225;SDS011;4154;48.810;9.012;2023-03-01T05:46:52;13.00;;;10.70;;
8225;SDS011;4154;48.810;9.012;2023-03-01T05:49:19;12.70;;;11.30;;
8225;SDS011;4154;48.810;9.012;2023-03-01T05:51:49;14.27;;;11.37;;
8225;SDS011;4154;48.810;9.012;2023-03-01T05:54:18;12.90;;;11.23;;
8225;SDS011;4154;48.810;9.012;2023-03-01T05:56:45;13.93;;;11.17;;
8225;SDS011;4154;48.810;9.012;2023-03-01T05:59:11;14.33;;;11.70;;
8225;SDS011;4154;48.810;9.012;2023-03-01T06:01:38;13.43;;;11.70;;
8225;SDS011;4154;48.810;9.012;2023-03-01T06:04:04;13.00;;;11.40;;
8225;SDS011;4154;48.810;9.012;2023-03-01T06:06:33;13.27;;;10.87;;
8225;SDS011;4154;48.810;9.012;2023-03-01T06:09:02;12.43;;;10.93;;
8225;SDS011;4154;48.810;9.012;2023-03-01T06:11:29;12.60;;;10.97;;
8225;SDS011;4154;48.810;9.012;2023-03-01T06:13:55;12.43;;;10.63;;
8225;SDS011;4154;48.810;9.012;2023-03-01T06:16:21;13.37;;;11.73;;
8225;SDS011;4154;48.810;9.012;2023-03-01T06:18:46;12.17;;;10.60;;
8225;SDS011;4154;48.810;9.012;2023-03-01T06:21:12;13.57;;;10.83;;
8225;SDS011;4154;48.810;9.012;2023-03-01T06:23:37;12.83;;;10.60;;
8225;SDS011;4154;48.810;9.012;2023-03-01T06:26:06;11.70;;;10.50;;
8225;SDS011;4154;48.810;9.012;2023-03-01T06:28:33;12.53;;;10.40;;
8225;SDS011;4154;48.810;9.012;2023-03-01T06:31:00;13.27;;;11.40;;
8225;SDS011;4154;48.810;9.012;2023-03-01T06:33:26;14.33;;;11.17;;
8225;SDS011;4154;48.810;9.012;2023-03-01T06:35:56;13.60;;;11.20;;
8225;SDS011;4154;48.810;9.012;2023-03-01T06:38:22;13.67;;;11.37;;
8225;SDS011;4154;48.810;9.012;2023-03-01T06:40:53;14.67;;;11.40;;
8225;SDS011;4154;48.810;9.012;2023-03-01T06:43:23;13.53;;;11.23;;
8225;SDS011;4154;48.810;9.012;2023-03-01T06:45:49;16.37;;;11.47;;
8225;SDS011;4154;48.810;9.012;2023-03-01T06:48:15;14.30;;;11.43;;
8225;SDS011;4154;48.810;9.012;2023-03-01T06:50:40;14.40;;;11.00;;
8225;SDS011;4154;48.810;9.012;2023-03-01T06:53:06;15.70;;;11.43;;
8225;SDS011;4154;48.810;9.012;2023-03-01T06:55:32;13.07;;;11.17;;
8225;SDS011;4154;48.810;9.012;2023-03-01T06:57:58;14.77;;;10.90;;
8225;SDS011;4154;48.810;9.012;2023-03-01T07:00:27;13.70;;;10.87;;
8225;SDS011;4154;48.810;9.012;2023-03-01T07:02:53;14.87;;;11.67;;
8225;SDS011;4154;48.810;9.012;2023-03-01T07:05:19;15.40;;;11.10;;
8225;SDS011;4154;48.810;9.012;2023-03-01T07:07:45;13.73;;;11.47;;
8225;SDS011;4154;48.810;9.012;2023-03-01T07:10:11;13.27;;;10.67;;
8225;SDS011;4154;48.810;9.012;2023-03-01T07:12:37;14.33;;;11.13;;
8225;SDS011;4154;48.810;9.012;2023-03-01T07:15:03;15.67;;;11.50;;
8225;SDS011;4154;48.810;9.012;2023-03-01T07:17:30;13.27;;;11.07;;
8225;SDS011;4154;48.810;9.012;2023-03-01T07:19:56;13.87;;;10.97;;
8225;SDS011;4154;48.810;9.012;2023-03-01T07:22:22;12.87;;;10.67;;
8225;SDS011;4154;48.810;9.012;2023-03-01T07:24:47;13.50;;;10.77;;
8225;SDS011;4154;48.810;9.012;2023-03-01T07:27:14;15.00;;;11.80;;
8225;SDS011;4154;48.810;9.012;2023-03-01T07:29:39;13.83;;;11.67;;
8225;SDS011;4154;48.810;9.012;2023-03-01T07:32:05;17.50;;;11.93;;
8225;SDS011;4154;48.810;9.012;2023-03-01T07:34:31;17.13;;;12.07;;
8225;SDS011;4154;48.810;9.012;2023-03-01T07:36:57;14.63;;;11.33;;
8225;SDS011;4154;48.810;9.012;2023-03-01T07:39:23;13.53;;;11.83;;
8225;SDS011;4154;48.810;9.012;2023-03-01T07:41:49;16.97;;;12.17;;
8225;SDS011;4154;48.810;9.012;2023-03-01T07:44:16;13.70;;;11.53;;
8225;SDS011;4154;48.810;9.012;2023-03-01T07:46:42;13.57;;;11.73;;
8225;SDS011;4154;48.810;9.012;2023-03-01T07:49:08;15.10;;;12.07;;
8225;SDS011;4154;48.810;9.012;2023-03-01T07:51:34;13.33;;;11.57;;
8225;SDS011;4154;48.810;9.012;2023-03-01T07:54:00;14.90;;;11.80;;
8225;SDS011;4154;48.810;9.012;2023-03-01T07:56:25;14.43;;;11.63;;
8225;SDS011;4154;48.810;9.012;2023-03-01T07:58:51;16.20;;;12.17;;
8225;SDS011;4154;48.810;9.012;2023-03-01T08:01:18;15.50;;;12.20;;
8225;SDS011;4154;48.810;9.012;2023-03-01T08:03:47;14.90;;;12.27;;
8225;SDS011;4154;48.810;9.012;2023-03-01T08:06:14;14.50;;;12.37;;
8225;SDS011;4154;48.810;9.012;2023-03-01T08:08:41;14.30;;;12.07;;
8225;SDS011;4154;48.810;9.012;2023-03-01T08:11:09;15.47;;;13.00;;
8225;SDS011;4154;48.810;9.012;2023-03-01T08:13:37;15.03;;;11.87;;
8225;SDS011;4154;48.810;9.012;2023-03-01T08:16:04;16.83;;;12.30;;
8225;SDS011;4154;48.810;9.012;2023-03-01T08:18:32;14.57;;;12.57;;
8225;SDS011;4154;48.810;9.012;2023-03-01T08:21:05;17.90;;;12.63;;
8225;SDS011;4154;48.810;9.012;2023-03-01T08:23:34;16.50;;;12.53;;
8225;SDS011;4154;48.810;9.012;2023-03-01T08:26:04;15.20;;;12.40;;
8225;SDS011;4154;48.810;9.012;2023-03-01T08:28:38;13.63;;;12.20;;
8225;SDS011;4154;48.810;9.012;2023-03-01T08:33:44;16.17;;;12.73;;
8225;SDS011;4154;48.810;9.012;2023-03-01T08:36:15;15.50;;;12.53;;
8225;SDS011;4154;48.810;9.012;2023-03-01T08:38:42;14.53;;;12.70;;
8225;SDS011;4154;48.810;9.012;2023-03-01T08:41:09;17.93;;;13.50;;
8225;SDS011;4154;48.810;9.012;2023-03-01T08:43:34;16.23;;;13.17;;
8225;SDS011;4154;48.810;9.012;2023-03-01T08:46:00;16.23;;;12.50;;
8225;SDS011;4154;48.810;9.012;2023-03-01T08:48:27;15.47;;;12.80;;
8225;SDS011;4154;48.810;9.012;2023-03-01T08:50:53;16.60;;;13.20;;
8225;SDS011;4154;48.810;9.012;2023-03-01T08:53:19;18.60;;;13.50;;
8225;SDS011;4154;48.810;9.012;2023-03-01T08:55:45;14.53;;;12.70;;
8225;SDS011;4154;48.810;9.012;2023-03-01T08:58:11;15.47;;;12.57;;
8225;SDS011;4154;48.810;9.012;2023-03-01T09:00:37;14.00;;;12.50;;
8225;SDS011;4154;48.810;9.012;2023-03-01T09:03:03;15.70;;;12.67;;
8225;SDS011;4154;48.810;9.012;2023-03-01T09:05:31;14.80;;;12.10;;
8225;SDS011;4154;48.810;9.012;2023-03-01T09:07:58;14.80;;;12.97;;
8225;SDS011;4154;48.810;9.012;2023-03-01T09:10:24;14.83;;;12.43;;
8225;SDS011;4154;48.810;9.012;2023-03-01T09:12:51;14.83;;;12.93;;
8225;SDS011;4154;48.810;9.012;2023-03-01T09:15:16;15.53;;;13.77;;
8225;SDS011;4154;48.810;9.012;2023-03-01T09:17:42;15.27;;;13.17;;
8225;SDS011;4154;48.810;9.012;2023-03-01T09:20:08;15.23;;;12.50;;
8225;SDS011;4154;48.810;9.012;2023-03-01T09:22:35;14.37;;;12.27;;
8225;SDS011;4154;48.810;9.012;2023-03-01T09:25:01;14.87;;;12.20;;
8225;SDS011;4154;48.810;9.012;2023-03-01T09:27:26;14.50;;;12.47;;
8225;SDS011;4154;48.810;9.012;2023-03-01T09:29:52;16.03;;;12.10;;
8225;SDS011;4154;48.810;9.012;2023-03-01T09:32:21;14.37;;;12.40;;
8225;SDS011;4154;48.810;9.012;2023-03-01T09:34:46;15.03;;;12.27;;
8225;SDS011;4154;48.810;9.012;2023-03-01T09:37:34;15.03;;;12.07;;
8225;SDS011;4154;48.810;9.012;2023-03-01T09:40:01;14.40;;;12.57;;
8225;SDS011;4154;48.810;9.012;2023-03-01T09:42:30;16.57;;;13.27;;
8225;SDS011;4154;48.810;9.012;2023-03-01T09:45:11;14.60;;;12.27;;
8225;SDS011;4154;48.810;9.012;2023-03-01T09:47:52;15.23;;;12.77;;
8225;SDS011;4154;48.810;9.012;2023-03-01T09:50:19;14.83;;;11.93;;
8225;SDS011;4154;48.810;9.012;2023-03-01T09:53:09;14.40;;;12.67;;
8225;SDS011;4154;48.810;9.012;2023-03-01T09:55:59;14.83;;;12.63;;
8225;SDS011;4154;48.810;9.012;2023-03-01T10:06:56;16.00;;;13.20;;
8225;SDS011;4154;48.810;9.012;2023-03-01T10:09:36;14.20;;;12.70;;
8225;SDS011;4154;48.810;9.012;2023-03-01T10:12:18;15.50;;;12.53;;
8225;SDS011;4154;48.810;9.012;2023-03-01T10:14:56;15.50;;;12.73;;
8225;SDS011;4154;48.810;9.012;2023-03-01T10:17:48;13.97;;;12.23;;
8225;SDS011;4154;48.810;9.012;2023-03-01T10:20:28;14.57;;;12.77;;
8225;SDS011;4154;48.810;9.012;2023-03-01T10:23:08;15.90;;;12.53;;
8225;SDS011;4154;48.810;9.012;2023-03-01T10:25:39;14.87;;;13.10;;
8225;SDS011;4154;48.810;9.012;2023-03-01T10:31:07;16.07;;;13.53;;
8225;SDS011;4154;48.810;9.012;2023-03-01T10:33:44;15.57;;;12.57;;
8225;SDS011;4154;48.810;9.012;2023-03-01T10:36:12;16.87;;;13.40;;
8225;SDS011;4154;48.810;9.012;2023-03-01T10:38:54;14.73;;;13.20;;
8225;SDS011;4154;48.810;9.012;2023-03-01T10:41:23;15.73;;;13.00;;
8225;SDS011;4154;48.810;9.012;2023-03-01T10:43:56;14.63;;;12.13;;
8225;SDS011;4154;48.810;9.012;2023-03-01T10:46:29;15.73;;;12.77;;
8225;SDS011;4154;48.810;9.012;2023-03-01T10:49:15;14.20;;;12.23;;
8225;SDS011;4154;48.810;9.012;2023-03-01T10:51:46;19.17;;;13.17;;
8225;SDS011;4154;48.810;9.012;2023-03-01T10:54:33;16.83;;;13.33;;
8225;SDS011;4154;48.810;9.012;2023-03-01T10:56:59;15.00;;;12.73;;
8225;SDS011;4154;48.810;9.012;2023-03-01T10:59:35;15.03;;;13.10;;
8225;SDS011;4154;48.810;9.012;2023-03-01T11:05:23;14.53;;;12.87;;
8225;SDS011;4154;48.810;9.012;2023-03-01T11:07:56;14.27;;;12.60;;
8225;SDS011;4154;48.810;9.012;2023-03-01T11:10:25;13.93;;;12.43;;
8225;SDS011;4154;48.810;9.012;2023-03-01T11:13:08;15.53;;;12.83;;
8225;SDS011;4154;48.810;9.012;2023-03-01T11:15:41;14.47;;;12.37;;
8225;SDS011;4154;48.810;9.012;2023-03-01T11:18:18;15.10;;;13.50;;
8225;SDS011;4154;48.810;9.012;2023-03-01T11:20:46;14.83;;;13.20;;
8225;SDS011;4154;48.810;9.012;2023-03-01T11:23:14;15.33;;;12.27;;
8225;SDS011;4154;48.810;9.012;2023-03-01T11:25:49;14.93;;;13.30;;
8225;SDS011;4154;48.810;9.012;2023-03-01T11:28:36;13.60;;;12.20;;
8225;SDS011;4154;48.810;9.012;2023-03-01T11:31:07;15.03;;;12.20;;
8225;SDS011;4154;48.810;9.012;2023-03-01T11:33:41;14.23;;;12.47;;
8225;SDS011;4154;48.810;9.012;2023-03-01T11:42:20;14.47;;;11.87;;
8225;SDS011;4154;48.810;9.012;2023-03-01T11:45:03;13.80;;;12.40;;
8225;SDS011;4154;48.810;9.012;2023-03-01T11:50:42;13.20;;;11.70;;
8225;SDS011;4154;48.810;9.012;2023-03-01T11:56:03;12.70;;;11.37;;
8225;SDS011;4154;48.810;9.012;2023-03-01T11:59:03;12.10;;;10.80;;
8225;SDS011;4154;48.810;9.012;2023-03-01T12:05:20;12.70;;;11.40;;
8225;SDS011;4154;48.810;9.012;2023-03-01T12:11:06;12.80;;;10.90;;
8225;SDS011;4154;48.810;9.012;2023-03-01T12:14:07;12.30;;;11.00;;
8225;SDS011;4154;48.810;9.012;2023-03-01T12:23:02;16.00;;;12.93;;
8225;SDS011;4154;48.810;9.012;2023-03-01T12:25:39;13.57;;;12.17;;
8225;SDS011;4154;48.810;9.012;2023-03-01T12:28:37;14.50;;;12.50;;
8225;SDS011;4154;48.810;9.012;2023-03-01T12:37:08;13.57;;;11.00;;
8225;SDS011;4154;48.810;9.012;2023-03-01T12:40:14;13.17;;;11.77;;
8225;SDS011;4154;48.810;9.012;2023-03-01T12:43:27;14.90;;;12.37;;
8225;SDS011;4154;48.810;9.012;2023-03-01T12:46:26;13.67;;;11.57;;
8225;SDS011;4154;48.810;9.012;2023-03-01T12:54:41;14.53;;;12.03;;
8225;SDS011;4154;48.810;9.012;2023-03-01T12:57:12;12.83;;;11.40;;
8225;SDS011;4154;48.810;9.012;2023-03-01T13:00:05;14.37;;;11.73;;
8225;SDS011;4154;48.810;9.012;2023-03-01T13:03:28;13.63;;;11.47;;
8225;SDS011;4154;48.810;9.012;2023-03-01T13:12:41;14.17;;;11.17;;
8225;SDS011;4154;48.810;9.012;2023-03-01T13:17:49;14.20;;;11.20;;
8225;SDS011;4154;48.810;9.012;2023-03-01T13:20:19;14.70;;;12.33;;
8225;SDS011;4154;48.810;9.012;2023-03-01T13:23:01;17.10;;;12.30;;
8225;SDS011;4154;48.810;9.012;2023-03-01T13:25:34;13.47;;;12.07;;
8225;SDS011;4154;48.810;9.012;2023-03-01T13:31:55;15.70;;;12.23;;
8225;SDS011;4154;48.810;9.012;2023-03-01T13:33:57;17.33;;;12.57;;
8225;SDS011;4154;48.810;9.012;2023-03-01T13:38:57;15.10;;;12.20;;
8225;SDS011;4154;48.810;9.012;2023-03-01T13:49:52;15.33;;;13.10;;
8225;SDS011;4154;48.810;9.012;2023-03-01T13:52:30;13.63;;;12.23;;
8225;SDS011;4154;48.810;9.012;2023-03-01T13:57:46;14.30;;;12.83;;
8225;SDS011;4154;48.810;9.012;2023-03-01T14:00:26;15.20;;;13.07;;
8225;SDS011;4154;48.810;9.012;2023-03-01T14:03:04;14.53;;;12.87;;
8225;SDS011;4154;48.810;9.012;2023-03-01T14:05:37;15.50;;;13.00;;
8225;SDS011;4154;48.810;9.012;2023-03-01T14:08:05;15.17;;;12.87;;
8225;SDS011;4154;48.810;9.012;2023-03-01T14:13:51;14.83;;;12.73;;
8225;SDS011;4154;48.810;9.012;2023-03-01T14:19:54;15.07;;;12.70;;
8225;SDS011;4154;48.810;9.012;2023-03-01T14:22:27;16.37;;;13.13;;
8225;SDS011;4154;48.810;9.012;2023-03-01T14:25:03;13.40;;;12.10;;
8225;SDS011;4154;48.810;9.012;2023-03-01T14:27:44;14.50;;;13.00;;
8225;SDS011;4154;48.810;9.012;2023-03-01T14:30:19;14.10;;;12.33;;
8225;SDS011;4154;48.810;9.012;2023-03-01T14:32:56;13.70;;;12.30;;
8225;SDS011;4154;48.810;9.012;2023-03-01T14:35:35;15.23;;;13.13;;
8225;SDS011;4154;48.810;9.012;2023-03-01T14:38:02;13.37;;;11.97;;
8225;SDS011;4154;48.810;9.012;2023-03-01T14:40:29;14.20;;;12.70;;
8225;SDS011;4154;48.810;9.012;2023-03-01T14:43:00;13.93;;;12.30;;
8225;SDS011;4154;48.810;9.012;2023-03-01T14:45:34;14.47;;;12.30;;
8225;SDS011;4154;48.810;9.012;2023-03-01T14:48:01;15.37;;;12.87;;
8225;SDS011;4154;48.810;9.012;2023-03-01T14:50:31;13.90;;;12.47;;
8225;SDS011;4154;48.810;9.012;2023-03-01T14:53:01;14.57;;;13.03;;
8225;SDS011;4154;48.810;9.012;2023-03-01T14:55:34;14.03;;;12.57;;
8225;SDS011;4154;48.810;9.012;2023-03-01T14:58:08;13.33;;;11.93;;
8225;SDS011;4154;48.810;9.012;2023-03-01T15:00:49;14.47;;;12.63;;
8225;SDS011;4154;48.810;9.012;2023-03-01T15:03:54;15.60;;;12.87;;
8225;SDS011;4154;48.810;9.012;2023-03-01T15:06:18;14.00;;;12.50;;
8225;SDS011;4154;48.810;9.012;2023-03-01T15:08:49;13.80;;;12.30;;
8225;SDS011;4154;48.810;9.012;2023-03-01T15:11:23;13.77;;;11.80;;
8225;SDS011;4154;48.810;9.012;2023-03-01T15:13:55;14.00;;;12.53;;
8225;SDS011;4154;48.810;9.012;2023-03-01T15:16:23;13.80;;;12.40;;
8225;SDS011;4154;48.810;9.012;2023-03-01T15:18:57;14.07;;;12.57;;
8225;SDS011;4154;48.810;9.012;2023-03-01T15:21:29;15.13;;;12.57;;
8225;SDS011;4154;48.810;9.012;2023-03-01T15:24:05;14.23;;;12.73;;
8225;SDS011;4154;48.810;9.012;2023-03-01T15:26:51;16.83;;;12.90;;
8225;SDS011;4154;48.810;9.012;2023-03-01T15:29:26;13.63;;;12.10;;
8225;SDS011;4154;48.810;9.012;2023-03-01T15:31:57;13.93;;;12.40;;
8225;SDS011;4154;48.810;9.012;2023-03-01T15:34:35;13.50;;;11.83;;
8225;SDS011;4154;48.810;9.012;2023-03-01T15:37:03;14.07;;;12.20;;
8225;SDS011;4154;48.810;9.012;2023-03-01T15:39:55;16.57;;;12.57;;
8225;SDS011;4154;48.810;9.012;2023-03-01T15:42:36;13.97;;;12.27;;
8225;SDS011;4154;48.810;9.012;2023-03-01T15:47:41;13.40;;;12.00;;
8225;SDS011;4154;48.810;9.012;2023-03-01T15:50:25;14.50;;;12.50;;
8225;SDS011;4154;48.810;9.012;2023-03-01T15:52:53;15.77;;;12.00;;
8225;SDS011;4154;48.810;9.012;2023-03-01T15:55:25;15.83;;;11.97;;
8225;SDS011;4154;48.810;9.012;2023-03-01T15:58:13;16.07;;;11.90;;
8225;SDS011;4154;48.810;9.012;2023-03-01T16:00:45;13.90;;;12.00;;
8225;SDS011;4154;48.810;9.012;2023-03-01T16:03:13;13.13;;;11.47;;
8225;SDS011;4154;48.810;9.012;2023-03-01T16:05:46;13.70;;;12.00;;
8225;SDS011;4154;48.810;9.012;2023-03-01T16:08:13;14.93;;;12.20;;
8225;SDS011;4154;48.810;9.012;2023-03-01T16:10:39;13.93;;;12.10;;
8225;SDS011;4154;48.810;9.012;2023-03-01T16:13:09;17.60;;;12.47;;
8225;SDS011;4154;48.810;9.012;2023-03-01T16:15:37;15.27;;;11.90;;
8225;SDS011;4154;48.810;9.012;2023-03-01T16:18:04;14.67;;;12.27;;
8225;SDS011;4154;48.810;9.012;2023-03-01T16:20:31;13.87;;;11.67;;
8225;SDS011;4154;48.810;9.012;2023-03-01T16:22:58;14.00;;;12.00;;
8225;SDS011;4154;48.810;9.012;2023-03-01T16:25:26;14.97;;;12.00;;
8225;SDS011;4154;48.810;9.012;2023-03-01T16:27:52;14.17;;;12.03;;
8225;SDS011;4154;48.810;9.012;2023-03-01T16:30:18;17.87;;;12.43;;
8225;SDS011;4154;48.810;9.012;2023-03-01T16:32:47;18.77;;;13.00;;
8225;SDS011;4154;48.810;9.012;2023-03-01T16:35:15;13.87;;;11.93;;
8225;SDS011;4154;48.810;9.012;2023-03-01T16:37:45;15.37;;;11.63;;
8225;SDS011;4154;48.810;9.012;2023-03-01T16:40:16;17.87;;;12.27;;
8225;SDS011;4154;48.810;9.012;2023-03-01T16:42:52;14.30;;;11.30;;
8225;SDS011;4154;48.810;9.012;2023-03-01T16:45:25;15.20;;;12.07;;
8225;SDS011;4154;48.810;9.012;2023-03-01T16:48:00;13.50;;;11.63;;
8225;SDS011;4154;48.810;9.012;2023-03-01T16:50:27;13.57;;;11.43;;